Time;durP1;ratioP1;P1;durP2;ratioP2;P2;SDS_P1;SDS_P2;PMS_P1;PMS_P2;Temp;Humidity;BMP_temperature;BMP_pressure;BME280_temperature;BME280_humidity;BME280_pressure;Samples;Min_cycle;Max_cycle;Signal;HPM_P1;HPM_P2
2022/12/13 03:59:35;;;;;;;19.00;11.80;;;7.70;51.70;;;;;;5705735;23;20080;-74
2022/12/13 04:02:00;;;;;;;19.92;12.93;;;7.80;52.50;;;;;;4879204;29;20073;-75
2022/12/13 04:04:26;;;;;;;18.95;11.68;;;8.00;52.70;;;;;;4881248;29;20048;-75
2022/12/13 04:06:52;;;;;;;18.65;11.93;;;8.10;53.70;;;;;;4871025;29;20479;-74
2022/12/13 04:09:18;;;;;;;18.80;11.32;;;8.30;53.60;;;;;;4871890;29;20045;-75
2022/12/13 04:14:27;;;;;;;14.68;10.05;;;8.70;53.60;;;;;;4872970;29;20049;-75
2022/12/13 04:16:53;;;;;;;15.48;10.30;;;9.00;53.50;;;;;;4872338;29;20045;-74
2022/12/13 04:19:19;;;;;;;21.95;10.93;;;9.40;53.30;;;;;;4871120;29;20150;-74
2022/12/13 04:21:45;;;;;;;18.38;10.23;;;9.60;53.50;;;;;;4870790;29;20462;-76
2022/12/13 04:24:10;;;;;;;21.10;9.60;;;9.90;53.30;;;;;;4861724;29;20053;-75
2022/12/13 04:26:36;;;;;;;19.75;9.27;;;10.10;53.20;;;;;;4878869;29;20101;-73
2022/12/13 04:29:02;;;;;;;15.32;9.25;;;10.20;53.10;;;;;;4877430;29;20053;-77
2022/12/13 04:31:28;;;;;;;17.42;9.02;;;10.30;53.00;;;;;;4875552;29;20053;-74
2022/12/13 04:33:53;;;;;;;15.05;8.82;;;10.40;53.00;;;;;;4864537;29;20059;-74
2022/12/13 04:36:19;;;;;;;14.98;8.43;;;10.50;53.00;;;;;;4860337;29;20057;-74
2022/12/13 04:38:45;;;;;;;13.27;8.18;;;10.50;53.10;;;;;;4876676;29;20051;-75
2022/12/13 04:41:17;;;;;;;13.60;8.77;;;10.60;53.10;;;;;;4881010;29;20088;-73
2022/12/13 04:43:43;;;;;;;13.88;7.82;;;10.60;53.10;;;;;;4878255;29;20091;-75
2022/12/13 04:46:09;;;;;;;13.63;7.80;;;10.70;53.20;;;;;;4878503;29;20045;-74
2022/12/13 04:48:35;;;;;;;14.43;8.82;;;10.70;53.20;;;;;;4879278;29;20045;-76
2022/12/13 04:51:01;;;;;;;12.18;8.45;;;10.70;53.20;;;;;;4877526;29;20128;-73
2022/12/13 04:53:28;;;;;;;12.13;7.88;;;10.80;53.30;;;;;;4878761;29;20045;-74
2022/12/13 04:55:54;;;;;;;10.75;7.22;;;10.90;53.40;;;;;;4877925;29;20376;-75
2022/12/13 04:58:19;;;;;;;11.07;6.63;;;11.00;53.40;;;;;;4878797;29;20056;-76
2022/12/13 05:00:45;;;;;;;9.68;6.45;;;11.10;53.40;;;;;;4877839;29;20057;-74
2022/12/13 05:03:11;;;;;;;9.30;6.90;;;11.20;53.30;;;;;;4876150;29;20045;-74
2022/12/13 05:05:40;;;;;;;10.57;6.63;;;11.30;53.30;;;;;;4876916;29;20052;-75
2022/12/13 05:08:07;;;;;;;10.75;6.82;;;11.50;53.10;;;;;;4875428;29;20069;-75
2022/12/13 05:10:34;;;;;;;9.68;6.32;;;11.60;53.00;;;;;;4876405;29;20477;-74
2022/12/13 05:13:00;;;;;;;8.07;5.97;;;11.70;53.00;;;;;;4874895;29;20133;-75
2022/12/13 05:15:26;;;;;;;8.40;6.18;;;11.70;52.80;;;;;;4876152;29;20344;-74
2022/12/13 05:17:52;;;;;;;9.65;5.97;;;11.80;52.80;;;;;;4875207;29;20092;-75
2022/12/13 05:20:17;;;;;;;9.18;6.20;;;11.90;53.50;;;;;;4874721;29;20475;-75
2022/12/13 05:22:43;;;;;;;8.23;5.43;;;11.90;52.80;;;;;;4857038;29;20084;-75
2022/12/13 05:25:09;;;;;;;9.20;6.28;;;11.90;52.90;;;;;;4863527;29;20116;-73
2022/12/13 05:27:35;;;;;;;8.25;5.93;;;11.90;53.00;;;;;;4884048;29;20048;-74
2022/12/13 05:30:01;;;;;;;10.23;5.97;;;11.90;53.00;;;;;;4883344;29;20060;-75
2022/12/13 05:32:26;;;;;;;8.15;5.70;;;11.90;53.00;;;;;;4882008;29;20405;-75
2022/12/13 05:34:52;;;;;;;8.52;5.57;;;11.90;53.10;;;;;;4881641;29;20086;-75
2022/12/13 05:37:18;;;;;;;7.22;5.32;;;11.90;53.00;;;;;;4881861;29;20060;-75
2022/12/13 05:39:43;;;;;;;8.98;5.68;;;11.90;53.20;;;;;;4881369;29;20059;-74
2022/12/13 05:42:10;;;;;;;8.30;5.47;;;11.90;53.30;;;;;;4880064;29;20140;-75
2022/12/13 05:44:36;;;;;;;10.35;6.00;;;11.80;53.40;;;;;;4890638;29;20049;-76
2022/12/13 05:47:01;;;;;;;12.70;6.88;;;11.80;52.30;;;;;;4882258;29;20151;-71
2022/12/13 05:49:27;;;;;;;11.65;6.65;;;11.20;53.00;;;;;;4891456;29;20052;-72
2022/12/13 05:51:53;;;;;;;12.20;5.93;;;11.40;54.10;;;;;;4885797;29;20048;-74
2022/12/13 05:54:18;;;;;;;9.90;6.22;;;11.40;54.40;;;;;;4884359;29;20128;-70
2022/12/13 05:56:44;;;;;;;14.32;6.95;;;11.50;54.40;;;;;;4883811;29;20056;-74
2022/12/13 05:59:10;;;;;;;23.73;8.55;;;11.70;54.00;;;;;;4883695;29;20101;-72
2022/12/13 06:01:36;;;;;;;16.63;6.70;;;11.90;54.20;;;;;;4884104;29;20064;-73
2022/12/13 06:04:02;;;;;;;16.90;7.15;;;12.00;53.90;;;;;;4883565;29;20104;-72
2022/12/13 06:06:28;;;;;;;14.00;7.85;;;12.10;54.20;;;;;;4884212;29;20073;-74
2022/12/13 06:08:54;;;;;;;14.90;5.70;;;12.10;52.50;;;;;;4897225;29;20077;-75
2022/12/13 06:11:19;;;;;;;19.83;6.55;;;12.30;54.50;;;;;;4883312;29;20067;-74
2022/12/13 06:13:51;;;;;;;16.30;6.28;;;12.50;54.60;;;;;;4883269;29;20056;-71
2022/12/13 06:16:16;;;;;;;20.30;6.45;;;12.50;55.10;;;;;;4883491;29;20060;-72
2022/12/13 06:18:42;;;;;;;14.65;5.57;;;12.70;55.70;;;;;;4900612;29;20048;-73
2022/12/13 06:21:08;;;;;;;16.77;6.20;;;12.80;56.40;;;;;;4901402;29;20072;-71
2022/12/13 06:23:34;;;;;;;16.80;6.78;;;12.90;57.10;;;;;;4900124;29;20041;-71
2022/12/13 06:26:06;;;;;;;11.88;5.88;;;13.00;57.50;;;;;;4888750;29;20428;-71
2022/12/13 06:28:32;;;;;;;20.58;6.68;;;13.10;58.10;;;;;;4880067;29;20099;-76
2022/12/13 06:31:02;;;;;;;16.17;6.15;;;13.20;57.90;;;;;;4892954;29;20045;-73
2022/12/13 06:33:28;;;;;;;12.40;5.78;;;13.30;57.60;;;;;;4892813;29;20043;-72
2022/12/13 06:35:57;;;;;;;18.13;6.93;;;13.30;57.80;;;;;;4866596;29;20376;-72
2022/12/13 06:38:26;;;;;;;12.93;6.28;;;13.30;57.60;;;;;;4882852;29;20045;-71
2022/12/13 06:40:51;;;;;;;11.60;5.80;;;13.40;57.70;;;;;;4868751;29;20059;-73
2022/12/13 06:43:19;;;;;;;14.80;8.48;;;13.50;57.60;;;;;;4878425;29;20371;-74
2022/12/13 06:45:45;;;;;;;18.92;8.82;;;13.50;55.60;;;;;;4882512;29;20380;-74
2022/12/13 06:48:11;;;;;;;17.15;9.00;;;13.50;53.80;;;;;;4882324;29;20053;-70
2022/12/13 06:50:37;;;;;;;12.20;7.70;;;13.50;53.60;;;;;;4897664;29;20093;-73
2022/12/13 06:53:02;;;;;;;12.63;7.07;;;13.60;53.70;;;;;;4900832;29;20140;-75
2022/12/13 06:55:28;;;;;;;18.42;7.65;;;13.60;54.00;;;;;;4900874;29;20487;-73
2022/12/13 06:57:58;;;;;;;13.02;6.53;;;13.70;54.30;;;;;;4896934;29;20401;-74
2022/12/13 07:00:24;;;;;;;19.85;7.47;;;13.60;54.50;;;;;;4882285;29;20075;-75
2022/12/13 07:02:54;;;;;;;30.00;8.07;;;13.70;55.50;;;;;;4881887;29;20444;-74
2022/12/13 07:05:20;;;;;;;20.35;6.93;;;13.80;56.30;;;;;;4889650;29;20094;-76
2022/12/13 07:07:45;;;;;;;22.90;7.95;;;13.90;56.40;;;;;;4865805;29;20084;-76
2022/12/13 07:10:11;;;;;;;24.10;7.90;;;13.90;56.40;;;;;;4866166;29;20120;-76
2022/12/13 07:12:37;;;;;;;26.75;9.30;;;14.00;56.10;;;;;;4882409;29;20033;-74
2022/12/13 07:15:03;;;;;;;24.40;8.68;;;13.90;54.80;;;;;;4899964;29;20048;-73
2022/12/13 07:17:32;;;;;;;27.60;8.52;;;14.00;54.20;;;;;;4900308;29;20140;-75
2022/12/13 07:19:59;;;;;;;21.80;6.82;;;14.00;53.90;;;;;;4899806;29;20056;-76
2022/12/13 07:22:24;;;;;;;20.67;8.05;;;14.00;54.20;;;;;;4883332;29;20064;-75
2022/12/13 07:24:50;;;;;;;24.05;7.13;;;14.10;54.50;;;;;;4876751;29;20053;-76
2022/12/13 07:27:16;;;;;;;25.70;7.50;;;14.10;54.90;;;;;;4879131;29;20340;-76
2022/12/13 07:29:41;;;;;;;25.27;7.05;;;14.10;55.10;;;;;;4876345;29;20201;-76
2022/12/13 07:32:07;;;;;;;24.85;7.13;;;14.20;55.40;;;;;;4880883;29;20048;-74
2022/12/13 07:34:33;;;;;;;26.75;6.70;;;14.30;55.30;;;;;;4880902;29;20037;-72
2022/12/13 07:36:58;;;;;;;23.10;7.75;;;14.30;54.90;;;;;;4882842;29;20055;-73
2022/12/13 07:39:25;;;;;;;19.85;6.65;;;14.30;54.80;;;;;;4900024;29;20375;-75
2022/12/13 07:41:53;;;;;;;27.98;6.63;;;14.20;54.70;;;;;;4891434;29;20044;-72
2022/12/13 07:44:19;;;;;;;24.35;7.45;;;14.20;54.60;;;;;;4864923;29;20458;-72
2022/12/13 07:46:45;;;;;;;22.17;6.82;;;14.10;54.60;;;;;;4880354;29;20123;-72
2022/12/13 07:49:10;;;;;;;20.33;7.20;;;14.00;54.60;;;;;;4899253;29;20163;-72
2022/12/13 07:51:36;;;;;;;13.75;5.55;;;13.90;55.20;;;;;;4883200;29;20064;-72
2022/12/13 07:54:02;;;;;;;14.48;7.05;;;13.80;54.60;;;;;;4890140;29;20053;-71
2022/12/13 07:56:28;;;;;;;17.90;6.13;;;13.80;54.70;;;;;;4881185;29;20080;-73
2022/12/13 07:58:53;;;;;;;14.10;6.05;;;13.70;54.80;;;;;;4881077;29;20081;-72
2022/12/13 08:01:19;;;;;;;11.65;6.20;;;13.60;54.70;;;;;;4884194;29;20056;-72
2022/12/13 08:03:47;;;;;;;14.55;6.18;;;13.60;54.80;;;;;;4899400;29;20052;-73
2022/12/13 08:06:13;;;;;;;10.45;6.03;;;13.50;54.80;;;;;;4899017;29;20091;-72
2022/12/13 08:08:38;;;;;;;15.27;6.07;;;13.40;54.80;;;;;;4899543;29;20097;-73
2022/12/13 08:11:12;;;;;;;13.48;5.88;;;13.40;55.00;;;;;;4886627;29;20056;-75
2022/12/13 08:13:39;;;;;;;18.05;6.25;;;13.30;55.20;;;;;;4899134;29;20056;-77
2022/12/13 08:16:07;;;;;;;15.93;6.68;;;13.30;55.30;;;;;;4896400;29;20052;-77
2022/12/13 08:18:33;;;;;;;22.23;6.68;;;13.30;55.70;;;;;;4895290;29;20353;-77
2022/12/13 08:21:00;;;;;;;23.83;6.63;;;13.30;55.90;;;;;;4880731;29;20127;-74
2022/12/13 08:23:26;;;;;;;16.15;6.90;;;13.40;55.80;;;;;;4880941;29;20460;-76
2022/12/13 08:25:53;;;;;;;13.50;5.57;;;13.50;55.70;;;;;;4887681;29;20376;-74
2022/12/13 08:28:20;;;;;;;18.85;6.55;;;13.60;55.80;;;;;;4874005;29;20065;-76
2022/12/13 08:30:47;;;;;;;16.90;5.43;;;13.70;55.70;;;;;;4899218;29;20059;-74
2022/12/13 08:33:12;;;;;;;16.42;5.25;;;13.80;55.60;;;;;;4873738;29;20113;-74
2022/12/13 08:35:39;;;;;;;12.25;5.13;;;13.90;55.50;;;;;;4880438;29;20049;-78
2022/12/13 08:38:05;;;;;;;12.77;5.55;;;14.00;55.50;;;;;;4879131;29;20479;-73
2022/12/13 08:40:31;;;;;;;15.07;5.45;;;14.10;55.50;;;;;;4883771;29;20040;-75
2022/12/13 08:42:57;;;;;;;15.85;5.00;;;14.20;55.60;;;;;;4898715;29;20420;-73
2022/12/13 08:45:23;;;;;;;15.88;5.57;;;14.20;55.60;;;;;;4898394;29;20132;-75
2022/12/13 08:47:49;;;;;;;13.00;5.70;;;14.30;55.70;;;;;;4897175;29;20091;-75
2022/12/13 08:50:15;;;;;;;12.85;5.70;;;14.30;55.70;;;;;;4885450;29;20085;-76
2022/12/13 08:52:43;;;;;;;13.77;5.65;;;14.40;55.70;;;;;;4880634;29;20055;-75
2022/12/13 08:55:10;;;;;;;13.80;5.50;;;14.40;55.80;;;;;;4863789;29;20052;-76
2022/12/13 08:57:36;;;;;;;9.85;5.10;;;14.40;55.90;;;;;;4883812;29;20456;-76
2022/12/13 09:00:08;;;;;;;12.27;4.85;;;14.50;56.00;;;;;;4898510;29;20045;-74
2022/12/13 09:02:34;;;;;;;14.50;5.47;;;14.60;56.10;;;;;;4879968;29;20376;-76
2022/12/13 09:04:59;;;;;;;16.33;5.47;;;14.60;56.30;;;;;;4859687;29;20045;-77
2022/12/13 09:07:26;;;;;;;13.15;5.75;;;14.60;56.40;;;;;;4849426;29;20056;-75
2022/12/13 09:09:54;;;;;;;17.88;4.93;;;14.70;56.20;;;;;;4865465;29;20061;-79
2022/12/13 09:12:20;;;;;;;16.42;5.75;;;14.70;55.80;;;;;;4865355;29;20045;-74
2022/12/13 09:14:46;;;;;;;11.45;5.57;;;14.70;55.80;;;;;;4883574;29;20120;-75
2022/12/13 09:17:15;;;;;;;12.98;5.53;;;14.70;55.70;;;;;;4883151;29;20049;-75
2022/12/13 09:19:40;;;;;;;14.73;5.45;;;14.70;56.00;;;;;;4882981;29;20369;-71
2022/12/13 09:22:06;;;;;;;15.27;5.68;;;14.70;56.10;;;;;;4869249;29;20037;-70
2022/12/13 09:24:32;;;;;;;15.30;7.78;;;14.60;55.70;;;;;;4864575;29;20065;-72
2022/12/13 09:26:58;;;;;;;15.68;8.95;;;14.50;54.20;;;;;;4865278;29;20124;-72
2022/12/13 09:29:24;;;;;;;15.20;7.95;;;14.30;53.10;;;;;;4871956;29;20157;-75
2022/12/13 09:31:50;;;;;;;16.95;7.63;;;14.20;53.10;;;;;;4870485;29;20041;-74
2022/12/13 09:34:16;;;;;;;13.13;6.93;;;14.00;53.20;;;;;;4865908;29;20046;-76
2022/12/13 09:36:44;;;;;;;14.85;7.68;;;13.90;53.80;;;;;;4850904;29;20068;-78
2022/12/13 09:39:11;;;;;;;12.93;7.70;;;13.70;54.00;;;;;;4882436;29;20068;-75
2022/12/13 09:41:41;;;;;;;14.93;7.90;;;13.70;54.40;;;;;;4865671;29;20468;-74
2022/12/13 09:44:14;;;;;;;14.52;7.10;;;13.70;54.80;;;;;;4866355;29;20060;-77
2022/12/13 09:46:43;;;;;;;14.20;6.70;;;13.70;54.80;;;;;;4862648;29;20138;-76
2022/12/13 09:49:33;;;;;;;11.95;6.47;;;13.60;54.90;;;;;;4860880;29;20053;-75
2022/12/13 09:52:03;;;;;;;9.77;5.60;;;13.60;55.10;;;;;;4848393;29;20093;-73
2022/12/13 09:54:29;;;;;;;10.10;5.40;;;13.60;55.30;;;;;;4863857;29;20049;-76
2022/12/13 09:56:56;;;;;;;11.20;5.07;;;13.60;55.50;;;;;;4864768;29;20056;-73
2022/12/13 09:59:34;;;;;;;9.35;4.78;;;13.50;55.50;;;;;;4864402;29;20049;-74
2022/12/13 10:02:20;;;;;;;20.88;13.40;;;13.50;56.20;;;;;;4882985;29;20056;-74
2022/12/13 10:04:46;;;;;;;23.13;11.98;;;13.50;49.60;;;;;;4889169;29;20053;-77
2022/12/13 10:07:20;;;;;;;19.63;10.88;;;13.10;49.30;;;;;;4882044;29;20128;-76
2022/12/13 10:09:47;;;;;;;21.02;8.85;;;12.90;51.00;;;;;;4876203;29;20466;-74
2022/12/13 10:12:15;;;;;;;18.33;8.60;;;12.80;52.30;;;;;;4901326;29;20151;-74
2022/12/13 10:14:54;;;;;;;16.80;7.32;;;12.80;53.10;;;;;;4900827;29;20044;-74
2022/12/13 10:17:24;;;;;;;13.75;7.03;;;12.80;53.80;;;;;;4894887;29;20080;-72
2022/12/13 10:19:50;;;;;;;14.50;6.30;;;12.80;54.10;;;;;;4851588;29;20117;-74
2022/12/13 10:22:19;;;;;;;18.60;7.68;;;12.80;54.30;;;;;;4882480;29;20045;-75
2022/12/13 10:24:55;;;;;;;16.88;6.43;;;12.80;54.50;;;;;;4867157;29;20097;-73
2022/12/13 10:27:28;;;;;;;11.55;6.10;;;12.70;54.80;;;;;;4884566;29;20165;-73
2022/12/13 10:30:20;;;;;;;10.15;5.25;;;12.70;55.00;;;;;;4891087;29;20123;-72
2022/12/13 10:32:56;;;;;;;13.13;5.68;;;12.60;55.20;;;;;;4883473;29;20053;-72
2022/12/13 10:35:33;;;;;;;9.88;5.80;;;12.50;55.40;;;;;;4900957;29;20056;-71
2022/12/13 10:38:20;;;;;;;11.52;5.97;;;12.50;55.70;;;;;;4900426;29;20052;-76
2022/12/13 10:40:47;;;;;;;12.13;5.80;;;12.50;56.00;;;;;;4885651;29;20539;-72
2022/12/13 10:43:13;;;;;;;9.90;5.47;;;12.40;56.20;;;;;;4879813;29;20049;-74
2022/12/13 10:45:58;;;;;;;13.23;6.00;;;12.40;56.40;;;;;;4877605;29;20065;-74
2022/12/13 10:48:34;;;;;;;9.15;5.32;;;12.40;56.50;;;;;;4882646;29;20053;-79
2022/12/13 10:51:04;;;;;;;10.20;5.15;;;12.40;56.70;;;;;;4879713;29;20041;-74
2022/12/13 10:53:34;;;;;;;12.48;4.55;;;12.40;56.90;;;;;;4882619;29;20452;-75
2022/12/13 10:56:01;;;;;;;10.25;5.30;;;12.30;56.90;;;;;;4880126;29;20348;-74
2022/12/13 10:58:48;;;;;;;9.23;4.40;;;12.40;57.10;;;;;;4894243;29;20044;-75
2022/12/13 11:01:17;;;;;;;11.02;4.53;;;12.30;57.50;;;;;;4867914;29;20385;-73
2022/12/13 11:04:04;;;;;;;5.40;4.00;;;12.30;57.60;;;;;;4877193;29;20076;-73
2022/12/13 11:06:44;;;;;;;7.63;4.60;;;12.30;57.60;;;;;;4876684;29;20052;-75
2022/12/13 11:09:26;;;;;;;8.82;4.38;;;12.30;58.00;;;;;;4875817;29;20053;-72
2022/12/13 11:11:53;;;;;;;8.30;4.00;;;12.20;58.30;;;;;;4873578;29;20635;-79
2022/12/13 11:14:22;;;;;;;17.23;12.68;;;12.20;58.30;;;;;;4881587;29;20041;-75
2022/12/13 11:16:58;;;;;;;19.83;12.15;;;12.30;52.50;;;;;;4879179;29;20076;-73
2022/12/13 11:19:31;;;;;;;15.73;9.45;;;12.10;50.70;;;;;;4872742;29;20061;-73
2022/12/13 11:21:58;;;;;;;13.05;8.27;;;11.90;52.60;;;;;;4876879;29;20091;-79
2022/12/13 11:24:28;;;;;;;12.27;7.57;;;12.00;51.80;;;;;;4887829;29;20064;-74
2022/12/13 11:27:03;;;;;;;10.88;7.18;;;12.10;51.90;;;;;;4880930;29;20049;-73
2022/12/13 11:29:40;;;;;;;13.30;7.22;;;12.20;52.20;;;;;;4884261;29;20045;-77
2022/12/13 11:32:25;;;;;;;9.07;6.32;;;12.40;52.60;;;;;;4899544;29;20135;-73
2022/12/13 11:35:01;;;;;;;9.55;6.18;;;12.60;52.70;;;;;;4899960;29;20108;-75
2022/12/13 11:37:35;;;;;;;9.40;6.13;;;12.70;53.20;;;;;;4893179;29;20130;-74
2022/12/13 11:40:10;;;;;;;10.65;5.22;;;12.90;53.80;;;;;;4865202;29;20048;-73
2022/12/13 11:42:57;;;;;;;10.73;4.88;;;13.00;54.10;;;;;;4881719;29;20045;-72
2022/12/13 11:45:27;;;;;;;9.95;4.68;;;13.20;54.30;;;;;;4867907;29;20045;-71
2022/12/13 11:47:59;;;;;;;11.63;4.82;;;13.30;54.20;;;;;;4892008;29;20120;-76
2022/12/13 11:50:35;;;;;;;8.43;4.00;;;13.50;54.40;;;;;;4877079;29;20374;-73
2022/12/13 11:53:26;;;;;;;9.50;4.20;;;13.60;54.60;;;;;;4878069;29;20116;-75
2022/12/13 11:56:09;;;;;;;9.68;4.63;;;13.70;55.30;;;;;;4885820;29;20052;-72
2022/12/13 11:58:43;;;;;;;10.07;4.65;;;13.90;55.50;;;;;;4899264;29;20037;-71
2022/12/13 12:01:16;;;;;;;8.45;4.43;;;14.00;56.10;;;;;;4898179;29;20497;-72
2022/12/13 12:03:59;;;;;;;16.85;5.32;;;14.10;56.40;;;;;;4878951;29;20057;-73
2022/12/13 12:06:33;;;;;;;12.97;4.13;;;14.10;56.30;;;;;;4880502;29;20535;-73
2022/12/13 12:09:05;;;;;;;12.23;4.18;;;14.20;56.20;;;;;;4881211;29;20056;-74
2022/12/13 12:11:52;;;;;;;17.17;6.10;;;14.30;56.40;;;;;;4898796;29;20151;-72
2022/12/13 12:14:44;;;;;;;12.40;4.15;;;14.40;55.60;;;;;;4866874;29;20052;-74
2022/12/13 12:17:15;;;;;;;16.58;4.82;;;14.40;55.00;;;;;;4881181;29;20109;-75
2022/12/13 12:19:47;;;;;;;10.02;4.78;;;14.40;55.00;;;;;;4874493;29;20503;-73
2022/12/13 12:22:44;;;;;;;10.55;4.63;;;14.50;54.50;;;;;;4879898;29;20108;-75
2022/12/13 12:25:27;;;;;;;16.33;6.43;;;14.60;54.40;;;;;;4899186;29;20408;-76
2022/12/13 12:28:08;;;;;;;22.10;6.95;;;14.60;54.70;;;;;;4885817;29;20053;-74
2022/12/13 12:31:06;;;;;;;22.80;9.07;;;14.60;55.10;;;;;;4881066;29;20044;-72
2022/12/13 12:34:04;;;;;;;23.38;8.77;;;14.70;54.20;;;;;;4883005;29;20049;-74
2022/12/13 12:36:40;;;;;;;14.50;8.55;;;14.70;50.40;;;;;;4898492;29;20048;-75
2022/12/13 12:39:24;;;;;;;17.13;7.45;;;14.00;52.20;;;;;;4887012;29;20053;-74
2022/12/13 12:41:56;;;;;;;19.05;8.02;;;14.10;53.40;;;;;;4868514;29;20056;-74
2022/12/13 12:44:52;;;;;;;19.33;7.47;;;14.30;53.40;;;;;;4888056;29;20078;-75
2022/12/13 12:47:35;;;;;;;14.27;6.65;;;14.50;53.70;;;;;;4877105;29;20053;-74
2022/12/13 12:50:12;;;;;;;20.63;5.97;;;14.60;53.60;;;;;;4886186;29;20055;-75
2022/12/13 12:52:47;;;;;;;16.42;5.85;;;14.80;53.60;;;;;;4898540;29;20052;-76
2022/12/13 12:55:26;;;;;;;13.48;5.32;;;14.90;53.60;;;;;;4899018;29;20103;-75
2022/12/13 12:57:55;;;;;;;9.32;5.05;;;15.00;53.70;;;;;;4887286;29;20385;-76
2022/12/13 13:00:23;;;;;;;10.90;4.68;;;15.10;53.70;;;;;;4896449;29;20472;-77
2022/12/13 13:03:17;;;;;;;9.93;4.20;;;15.10;53.70;;;;;;4880783;29;20509;-76
2022/12/13 13:05:56;;;;;;;10.27;4.32;;;15.30;54.00;;;;;;4872101;29;20429;-77
2022/12/13 13:08:46;;;;;;;10.32;4.32;;;15.30;53.90;;;;;;4867380;29;20129;-77
2022/12/13 13:11:12;;;;;;;14.77;5.30;;;15.30;54.10;;;;;;4862429;29;20049;-74
2022/12/13 13:13:41;;;;;;;12.05;5.22;;;15.30;54.60;;;;;;4862742;29;20361;-77
2022/12/13 13:16:32;;;;;;;13.00;6.25;;;15.40;54.80;;;;;;4874220;29;20053;-75
2022/12/13 13:19:10;;;;;;;10.90;5.05;;;15.40;56.10;;;;;;4880253;29;20112;-75
2022/12/13 13:21:46;;;;;;;8.80;4.57;;;15.40;56.80;;;;;;4883150;29;20059;-76
2022/12/13 13:24:22;;;;;;;9.20;4.35;;;15.50;56.80;;;;;;4883101;29;20096;-78
2022/12/13 13:26:55;;;;;;;9.00;4.50;;;15.50;56.90;;;;;;4899569;29;20052;-74
2022/12/13 13:29:24;;;;;;;9.00;3.92;;;15.50;57.00;;;;;;4897471;29;20056;-74
2022/12/13 13:32:03;;;;;;;7.28;3.85;;;15.50;56.70;;;;;;4872727;29;20061;-76
2022/12/13 13:34:35;;;;;;;11.57;4.50;;;15.60;56.70;;;;;;4880691;29;20049;-77
2022/12/13 13:37:20;;;;;;;7.15;3.60;;;15.70;56.60;;;;;;4881128;29;20152;-74
2022/12/13 13:39:52;;;;;;;8.38;3.97;;;15.70;56.40;;;;;;4861255;29;20128;-75
2022/12/13 13:42:25;;;;;;;7.82;3.53;;;15.70;56.40;;;;;;4880665;29;20068;-74
2022/12/13 13:44:59;;;;;;;7.93;3.38;;;15.70;56.10;;;;;;4854470;29;20444;-75
2022/12/13 13:47:32;;;;;;;7.60;2.70;;;15.70;56.00;;;;;;4879023;29;20068;-74
2022/12/13 13:50:06;;;;;;;9.03;3.43;;;15.70;55.90;;;;;;4854810;29;20049;-75
2022/12/13 13:52:50;;;;;;;8.77;3.10;;;15.80;55.90;;;;;;4867617;29;20479;-74
2022/12/13 13:56:01;;;;;;;7.43;3.83;;;15.80;56.10;;;;;;4883750;29;20092;-76
2022/12/13 13:58:38;;;;;;;6.15;2.97;;;15.80;55.80;;;;;;4837633;29;20063;-76
2022/12/13 14:01:23;;;;;;;7.85;2.28;;;15.80;56.00;;;;;;4861640;29;20053;-72
2022/12/13 14:04:00;;;;;;;6.75;3.05;;;15.70;55.90;;;;;;4869753;29;20145;-74
2022/12/13 14:06:51;;;;;;;12.68;3.30;;;15.70;56.10;;;;;;4885547;29;20123;-74
2022/12/13 14:09:44;;;;;;;9.05;2.20;;;15.60;56.30;;;;;;4888426;29;20089;-75
2022/12/13 14:12:39;;;;;;;5.72;1.85;;;15.60;56.60;;;;;;4892110;29;20105;-73
2022/12/13 14:15:29;;;;;;;6.80;2.33;;;15.50;56.70;;;;;;4884863;29;20053;-73
2022/12/13 14:18:22;;;;;;;4.53;2.10;;;15.40;56.80;;;;;;4885496;29;20168;-75
2022/12/13 14:21:07;;;;;;;4.32;2.40;;;15.30;57.10;;;;;;4883410;29;20128;-74
2022/12/13 14:23:34;;;;;;;4.93;2.50;;;15.30;57.10;;;;;;4887559;29;20112;-74
2022/12/13 14:26:18;;;;;;;6.60;2.58;;;15.20;57.10;;;;;;4901580;29;20052;-78
2022/12/13 14:28:46;;;;;;;4.00;2.08;;;15.10;57.30;;;;;;4901804;29;20115;-73
2022/12/13 14:31:20;;;;;;;8.15;2.20;;;15.00;57.10;;;;;;4901078;29;20056;-74
2022/12/13 14:33:46;;;;;;;4.88;2.40;;;15.00;57.10;;;;;;4901677;29;20060;-73
2022/12/13 14:36:17;;;;;;;3.00;2.13;;;14.90;57.50;;;;;;4901123;29;20056;-74
2022/12/13 14:38:43;;;;;;;3.53;2.15;;;14.90;57.60;;;;;;4885068;29;20060;-74
2022/12/13 14:41:18;;;;;;;5.65;1.98;;;14.80;57.30;;;;;;4884692;29;20114;-74
2022/12/13 14:43:44;;;;;;;4.82;2.70;;;14.70;57.20;;;;;;4887179;29;20135;-74
2022/12/13 14:46:14;;;;;;;7.43;3.00;;;14.60;57.30;;;;;;4900980;29;20044;-75
2022/12/13 14:48:49;;;;;;;14.50;4.45;;;14.60;57.20;;;;;;4886979;29;20052;-75
2022/12/13 14:51:21;;;;;;;8.02;3.53;;;14.50;57.30;;;;;;4884471;29;20056;-74
2022/12/13 14:53:51;;;;;;;13.20;6.13;;;14.50;57.00;;;;;;4900955;29;20052;-72
2022/12/13 14:56:17;;;;;;;17.60;9.25;;;14.50;56.10;;;;;;4884458;29;20364;-75
2022/12/13 14:58:57;;;;;;;20.42;8.30;;;14.50;55.00;;;;;;4915485;29;20060;-76
2022/12/13 15:01:30;;;;;;;19.17;7.63;;;14.50;53.10;;;;;;4899823;29;20060;-79
2022/12/13 15:04:18;;;;;;;20.60;8.13;;;14.30;53.10;;;;;;4878907;29;20085;-78
2022/12/13 15:06:54;;;;;;;17.75;6.88;;;14.30;52.90;;;;;;4882334;29;20077;-74
2022/12/13 15:09:19;;;;;;;14.95;6.20;;;14.40;52.60;;;;;;4880634;29;20532;-75
2022/12/13 15:11:45;;;;;;;12.38;6.45;;;14.50;52.80;;;;;;4885456;29;20032;-73
2022/12/13 15:14:20;;;;;;;16.90;5.93;;;14.60;53.00;;;;;;4900381;29;20045;-78
2022/12/13 15:16:54;;;;;;;16.20;5.97;;;14.70;53.30;;;;;;4899953;29;20044;-73
2022/12/13 15:19:23;;;;;;;14.85;5.32;;;14.90;53.70;;;;;;4899884;29;20056;-79
2022/12/13 15:21:55;;;;;;;13.63;4.40;;;14.90;54.20;;;;;;4889981;29;20056;-72
2022/12/13 15:24:26;;;;;;;16.33;5.60;;;15.00;54.60;;;;;;4881941;29;20347;-74
2022/12/13 15:26:54;;;;;;;24.52;6.07;;;15.00;55.10;;;;;;4876982;29;20103;-72
2022/12/13 15:29:22;;;;;;;13.00;5.47;;;15.10;55.50;;;;;;4884185;29;20077;-75
2022/12/13 15:31:47;;;;;;;29.25;6.45;;;15.10;55.90;;;;;;4895902;29;20079;-77
2022/12/13 15:34:35;;;;;;;20.00;5.85;;;15.20;56.30;;;;;;4898689;29;20048;-74
2022/12/13 15:37:02;;;;;;;29.38;6.30;;;15.10;57.10;;;;;;4898828;29;20179;-75
2022/12/13 15:39:34;;;;;;;19.10;5.47;;;15.20;57.10;;;;;;4899258;29;20368;-75
2022/12/13 15:41:59;;;;;;;23.88;5.50;;;15.20;57.40;;;;;;4874025;29;20143;-75
2022/12/13 15:44:29;;;;;;;25.55;5.65;;;15.20;57.70;;;;;;4895581;29;20461;-74
2022/12/13 15:47:03;;;;;;;14.32;5.65;;;15.30;58.00;;;;;;4881432;29;20060;-74
2022/12/13 15:49:48;;;;;;;22.45;5.97;;;15.40;58.10;;;;;;4881710;29;20125;-74
2022/12/13 15:52:14;;;;;;;22.02;6.38;;;15.40;58.10;;;;;;4893868;29;20530;-75
2022/12/13 15:54:41;;;;;;;13.15;5.35;;;15.50;57.90;;;;;;4899117;29;20131;-75
2022/12/13 15:57:13;;;;;;;17.35;4.85;;;15.60;57.90;;;;;;4898632;29;20090;-74
2022/12/13 15:59:41;;;;;;;21.73;5.55;;;15.60;58.00;;;;;;4890332;29;20045;-76
2022/12/13 16:02:18;;;;;;;19.98;6.25;;;15.60;57.90;;;;;;4897596;29;20064;-74
2022/12/13 16:04:45;;;;;;;14.52;5.25;;;15.60;57.90;;;;;;4895421;29;20133;-74
2022/12/13 16:07:22;;;;;;;18.75;5.95;;;15.70;57.80;;;;;;4882000;29;20060;-74
2022/12/13 16:09:49;;;;;;;50.45;8.63;;;15.80;57.90;;;;;;4881505;29;20147;-78
2022/12/13 16:12:24;;;;;;;37.20;7.82;;;15.70;57.70;;;;;;4881309;29;20503;-77
2022/12/13 16:14:50;;;;;;;37.58;6.65;;;15.70;57.70;;;;;;4868570;29;20088;-77
2022/12/13 16:17:28;;;;;;;31.45;7.03;;;15.70;57.70;;;;;;4893736;29;20144;-75
2022/12/13 16:19:57;;;;;;;35.28;7.13;;;15.80;57.70;;;;;;4882469;29;20116;-74
2022/12/13 16:22:23;;;;;;;33.05;7.10;;;15.80;57.50;;;;;;4898734;29;20063;-74
2022/12/13 16:24:55;;;;;;;19.85;5.82;;;15.80;57.50;;;;;;4884093;29;20071;-75
2022/12/13 16:27:20;;;;;;;24.58;6.57;;;15.80;57.60;;;;;;4874004;29;20376;-74
2022/12/13 16:29:46;;;;;;;21.35;6.30;;;15.70;56.50;;;;;;4880911;29;20048;-75
2022/12/13 16:32:12;;;;;;;27.48;6.75;;;15.70;57.80;;;;;;4880510;29;20053;-72
2022/12/13 16:34:38;;;;;;;26.95;7.00;;;15.50;57.70;;;;;;4882607;29;20052;-75
2022/12/13 16:37:04;;;;;;;23.23;6.25;;;15.60;57.80;;;;;;4878542;29;20057;-75
2022/12/13 16:39:30;;;;;;;25.25;6.15;;;15.70;57.90;;;;;;4879459;29;20453;-78
2022/12/13 16:41:55;;;;;;;20.38;5.57;;;15.70;58.00;;;;;;4879284;29;20049;-77
2022/12/13 16:44:31;;;;;;;20.92;5.93;;;15.70;57.90;;;;;;4878889;29;20078;-74
2022/12/13 16:46:57;;;;;;;15.82;5.88;;;15.80;58.30;;;;;;4878886;29;20137;-75
2022/12/13 16:49:25;;;;;;;22.35;5.78;;;15.80;58.60;;;;;;4880973;29;20163;-76
2022/12/13 16:51:51;;;;;;;25.45;6.03;;;15.80;59.30;;;;;;4873063;29;20045;-72
2022/12/13 16:54:19;;;;;;;17.70;6.47;;;15.90;59.60;;;;;;4880608;29;20412;-74
2022/12/13 16:56:45;;;;;;;24.10;6.10;;;15.80;60.00;;;;;;4880887;29;20141;-76
2022/12/13 16:59:17;;;;;;;21.23;6.03;;;15.90;60.20;;;;;;4880845;29;20121;-77